createdAt,value
2018-10-02T00:02:32.463Z,4.60
2018-10-02T00:05:41.884Z,3.50
2018-10-02T00:09:54.519Z,3.30
2018-10-02T00:14:08.070Z,3.03
2018-10-02T00:17:17.286Z,2.20
2018-10-02T00:20:26.582Z,2.33
2018-10-02T00:23:36.443Z,2.90
2018-10-02T00:26:45.619Z,2.13
2018-10-02T00:29:54.778Z,2.30
2018-10-02T00:33:04.206Z,2.70
2018-10-02T00:36:13.606Z,2.30
2018-10-02T00:39:23.006Z,2.20
2018-10-02T00:42:32.350Z,2.47
2018-10-02T00:45:41.650Z,2.30
2018-10-02T00:48:50.750Z,2.47
2018-10-02T00:52:00.045Z,2.60
2018-10-02T00:55:09.426Z,2.87
2018-10-02T00:58:18.547Z,2.70
2018-10-02T01:01:27.777Z,2.83
2018-10-02T01:04:37.235Z,2.60
2018-10-02T01:07:46.626Z,3.00
2018-10-02T01:10:55.978Z,2.53
2018-10-02T01:14:05.246Z,2.40
2018-10-02T01:17:14.358Z,2.90
2018-10-02T01:20:23.686Z,2.43
2018-10-02T01:23:33.186Z,2.27
2018-10-02T01:26:42.528Z,2.10
2018-10-02T01:29:51.815Z,2.50
2018-10-02T01:33:01.022Z,2.40
2018-10-02T01:36:10.759Z,2.30
2018-10-02T01:39:20.070Z,1.97
2018-10-02T01:42:29.442Z,2.20
2018-10-02T01:45:39.134Z,2.10
2018-10-02T01:48:48.434Z,2.17
2018-10-02T01:51:57.721Z,2.23
2018-10-02T01:55:07.242Z,2.30
2018-10-02T01:58:16.450Z,1.87
2018-10-02T02:01:25.697Z,2.23
2018-10-02T02:04:35.012Z,2.60
2018-10-02T02:07:44.304Z,2.00
2018-10-02T02:10:53.542Z,2.30
2018-10-02T02:14:02.839Z,2.30
2018-10-02T02:17:12.012Z,2.10
2018-10-02T02:20:21.354Z,2.97
2018-10-02T02:23:30.749Z,2.73
2018-10-02T02:26:39.997Z,2.57
2018-10-02T02:29:49.760Z,3.00
2018-10-02T02:32:59.016Z,3.03
2018-10-02T02:36:08.282Z,3.30
2018-10-02T02:39:17.470Z,3.50
2018-10-02T02:42:26.837Z,3.10
2018-10-02T02:45:36.005Z,3.00
2018-10-02T02:48:50.817Z,3.57
2018-10-02T02:51:59.987Z,3.33
2018-10-02T02:55:09.468Z,3.50
2018-10-02T02:58:18.690Z,3.70
2018-10-02T03:01:28.668Z,3.80
2018-10-02T03:04:37.822Z,4.37
2018-10-02T03:07:47.022Z,4.20
2018-10-02T03:10:56.302Z,4.23
2018-10-02T03:14:05.421Z,4.10
2018-10-02T03:17:14.699Z,4.33
2018-10-02T03:20:23.813Z,4.30
2018-10-02T03:23:33.056Z,4.90
2018-10-02T03:26:42.270Z,3.93
2018-10-02T03:29:51.671Z,4.30
2018-10-02T03:33:00.884Z,4.10
2018-10-02T03:36:10.345Z,4.63
2018-10-02T03:39:19.758Z,4.87
2018-10-02T03:42:29.169Z,5.20
2018-10-02T03:45:38.478Z,4.90
2018-10-02T03:48:47.803Z,4.37
2018-10-02T03:51:56.996Z,5.30
2018-10-02T03:55:06.694Z,4.80
2018-10-02T03:58:16.146Z,5.07
2018-10-02T04:01:25.203Z,6.47
2018-10-02T04:04:34.240Z,5.87
2018-10-02T04:07:43.613Z,5.63
2018-10-02T04:10:52.770Z,5.37
2018-10-02T04:14:01.838Z,5.23
2018-10-02T04:17:10.906Z,6.03
2018-10-02T04:20:20.102Z,6.03
2018-10-02T04:23:29.375Z,6.50
2018-10-02T04:26:38.760Z,6.47
2018-10-02T04:29:48.027Z,6.50
2018-10-02T04:32:57.187Z,5.90
2018-10-02T04:36:06.394Z,6.40
2018-10-02T04:39:15.611Z,6.60
2018-10-02T04:42:24.873Z,7.07
2018-10-02T04:45:34.230Z,7.03
2018-10-02T04:48:43.366Z,6.73
2018-10-02T04:51:52.619Z,6.10
2018-10-02T04:55:02.098Z,7.00
2018-10-02T04:58:11.504Z,5.90
2018-10-02T05:01:20.823Z,5.97
2018-10-02T05:04:30.006Z,6.67
2018-10-02T05:07:39.245Z,6.47
2018-10-02T05:10:48.502Z,6.63
2018-10-02T05:13:58.391Z,6.40
2018-10-02T05:17:07.702Z,8.83
2018-10-02T05:20:19.818Z,7.03
2018-10-02T05:23:29.371Z,7.10
2018-10-02T05:26:38.755Z,8.73
2018-10-02T05:29:48.184Z,7.47
2018-10-02T05:32:57.652Z,7.33
2018-10-02T05:36:07.045Z,7.40
2018-10-02T05:39:16.367Z,7.10
2018-10-02T05:42:25.518Z,8.23
2018-10-02T05:45:34.734Z,7.00
2018-10-02T05:48:44.111Z,8.77
2018-10-02T05:51:53.501Z,7.70
2018-10-02T05:55:03.099Z,6.33
2018-10-02T05:58:12.332Z,7.70
2018-10-02T06:01:21.680Z,5.90
2018-10-02T06:04:31.059Z,6.23
2018-10-02T06:07:40.258Z,5.97
2018-10-02T06:10:49.603Z,6.73
2018-10-02T06:13:58.730Z,6.00
2018-10-02T06:17:07.930Z,6.17
2018-10-02T06:20:17.205Z,7.43
2018-10-02T06:23:26.479Z,5.33
2018-10-02T06:26:35.721Z,7.17
2018-10-02T06:29:44.860Z,4.17
2018-10-02T06:32:54.160Z,3.77
2018-10-02T06:36:03.498Z,3.47
2018-10-02T06:39:12.918Z,4.97
2018-10-02T06:42:22.267Z,3.77
2018-10-02T06:45:31.577Z,3.80
2018-10-02T06:48:40.703Z,3.27
2018-10-02T06:51:50.103Z,3.83
2018-10-02T06:54:59.114Z,4.60
2018-10-02T06:58:08.327Z,3.60
2018-10-02T07:01:17.439Z,3.87
2018-10-02T07:04:26.743Z,3.53
2018-10-02T07:07:35.834Z,3.40
2018-10-02T07:10:44.979Z,3.47
2018-10-02T07:13:54.212Z,3.90
2018-10-02T07:17:03.387Z,4.13
2018-10-02T07:20:12.647Z,3.20
2018-10-02T07:23:21.910Z,2.90
2018-10-02T07:26:31.400Z,2.77
2018-10-02T07:29:40.863Z,3.57
2018-10-02T07:32:50.743Z,4.20
2018-10-02T07:36:00.089Z,2.87
2018-10-02T07:39:09.838Z,3.53
2018-10-02T07:42:19.828Z,3.50
2018-10-02T07:45:29.122Z,3.50
2018-10-02T07:48:38.491Z,3.27
2018-10-02T07:51:47.823Z,4.00
2018-10-02T07:54:57.095Z,3.97
2018-10-02T07:58:06.425Z,2.77
2018-10-02T08:01:15.863Z,3.60
2018-10-02T08:04:25.271Z,3.10
2018-10-02T08:07:34.620Z,2.77
2018-10-02T08:10:44.586Z,3.33
2018-10-02T08:13:54.011Z,3.37
2018-10-02T08:17:03.362Z,2.90
2018-10-02T08:20:12.722Z,3.33
2018-10-02T08:23:21.913Z,3.13
2018-10-02T08:26:31.022Z,3.60
2018-10-02T08:29:40.492Z,2.40
2018-10-02T08:33:52.919Z,3.33
2018-10-02T08:37:02.059Z,2.90
2018-10-02T08:40:11.332Z,3.40
2018-10-02T08:43:20.766Z,2.67
2018-10-02T08:46:30.339Z,2.90
2018-10-02T08:49:39.597Z,3.17
2018-10-02T08:52:48.876Z,3.27
2018-10-02T08:55:58.118Z,3.17
2018-10-02T08:59:07.264Z,2.60
2018-10-02T09:02:16.411Z,2.40
2018-10-02T09:05:25.751Z,2.40
2018-10-02T09:08:34.960Z,3.27
2018-10-02T09:11:44.498Z,3.80
2018-10-02T09:14:53.787Z,3.53
2018-10-02T09:18:03.145Z,3.80
2018-10-02T09:21:12.418Z,2.60
2018-10-02T09:24:21.549Z,2.60
2018-10-02T09:27:30.784Z,2.57
2018-10-02T09:30:45.307Z,2.80
2018-10-02T09:34:00.051Z,3.43
2018-10-02T09:37:14.706Z,3.53
2018-10-02T09:40:29.461Z,2.63
2018-10-02T09:43:41.887Z,2.40
2018-10-02T09:46:51.318Z,2.90
2018-10-02T09:50:00.516Z,2.37
2018-10-02T09:53:09.731Z,2.60
2018-10-02T09:56:18.970Z,2.87
2018-10-02T09:59:28.146Z,2.80
2018-10-02T10:02:37.478Z,2.60
2018-10-02T10:05:46.595Z,2.87
2018-10-02T10:08:55.746Z,2.20
2018-10-02T10:12:04.909Z,2.70
2018-10-02T10:15:14.215Z,2.67
2018-10-02T10:18:23.526Z,2.40
2018-10-02T10:21:33.162Z,2.47
2018-10-02T10:24:42.418Z,2.23
2018-10-02T10:27:51.993Z,2.83
2018-10-02T10:31:01.417Z,2.10
2018-10-02T10:34:10.691Z,2.67
2018-10-02T10:37:20.082Z,2.40
2018-10-02T10:40:29.279Z,2.50
2018-10-02T10:43:38.523Z,3.10
2018-10-02T10:46:47.812Z,3.20
2018-10-02T10:49:57.135Z,2.43
2018-10-02T10:53:06.656Z,3.30
2018-10-02T10:56:15.936Z,2.70
2018-10-02T10:59:25.217Z,2.60
2018-10-02T11:02:34.406Z,2.57
2018-10-02T11:05:43.663Z,2.77
2018-10-02T11:08:53.032Z,3.10
2018-10-02T11:12:02.334Z,4.40
2018-10-02T11:15:11.430Z,2.93
2018-10-02T11:18:20.555Z,3.03
2018-10-02T11:21:29.720Z,3.20
2018-10-02T11:24:39.141Z,4.10
2018-10-02T11:27:48.545Z,3.43
2018-10-02T11:30:57.717Z,3.30
2018-10-02T11:34:06.856Z,3.30
2018-10-02T11:37:16.161Z,3.10
2018-10-02T11:40:25.244Z,2.80
2018-10-02T11:43:34.563Z,3.20
2018-10-02T11:46:43.930Z,3.80
2018-10-02T11:49:53.468Z,3.50
2018-10-02T11:53:02.587Z,3.33
2018-10-02T11:56:11.911Z,3.77
2018-10-02T11:59:21.158Z,3.37
2018-10-02T12:02:30.377Z,2.90
2018-10-02T12:05:39.744Z,3.33
2018-10-02T12:08:49.052Z,3.10
2018-10-02T12:11:58.304Z,3.53
2018-10-02T12:15:07.491Z,3.47
2018-10-02T12:18:16.667Z,3.50
2018-10-02T12:21:25.968Z,3.00
2018-10-02T12:24:35.405Z,2.93
2018-10-02T12:27:44.697Z,3.97
2018-10-02T12:30:53.911Z,3.00
2018-10-02T12:34:03.191Z,3.40
2018-10-02T12:37:12.575Z,2.60
2018-10-02T12:40:21.893Z,2.57
2018-10-02T12:43:31.083Z,3.10
2018-10-02T12:46:40.293Z,2.93
2018-10-02T12:49:49.550Z,3.03
2018-10-02T12:52:58.997Z,2.93
2018-10-02T12:56:08.201Z,3.53
2018-10-02T12:59:17.450Z,3.70
2018-10-02T13:02:26.606Z,3.10
2018-10-02T13:05:37.028Z,3.20
2018-10-02T13:08:46.212Z,3.53
2018-10-02T13:11:55.450Z,3.30
2018-10-02T13:15:04.905Z,4.33
2018-10-02T13:18:13.994Z,4.50
2018-10-02T13:21:23.167Z,3.47
2018-10-02T13:24:32.310Z,3.30
2018-10-02T13:27:41.411Z,4.13
2018-10-02T13:30:51.063Z,4.50
2018-10-02T13:34:00.314Z,4.80
2018-10-02T13:37:09.697Z,5.77
2018-10-02T13:40:18.870Z,5.40
2018-10-02T13:43:28.230Z,5.60
2018-10-02T13:46:37.549Z,6.30
2018-10-02T13:49:46.762Z,6.70
2018-10-02T13:52:56.207Z,6.20
2018-10-02T13:56:05.303Z,6.40
2018-10-02T13:59:14.482Z,6.47
2018-10-02T14:02:23.887Z,6.33
2018-10-02T14:05:33.230Z,7.23
2018-10-02T14:08:50.587Z,7.23
2018-10-02T14:11:59.937Z,6.67
2018-10-02T14:15:09.183Z,6.20
2018-10-02T14:18:18.515Z,6.77
2018-10-02T14:21:27.684Z,6.37
2018-10-02T14:24:37.064Z,6.80
2018-10-02T14:27:46.472Z,12.33
2018-10-02T14:30:55.597Z,8.30
2018-10-02T14:34:04.980Z,8.93
2018-10-02T14:37:14.540Z,10.10
2018-10-02T14:40:23.743Z,10.80
2018-10-02T14:43:33.152Z,9.67
2018-10-02T14:46:42.574Z,8.90
2018-10-02T14:49:51.668Z,7.37
2018-10-02T14:53:00.832Z,6.60
2018-10-02T14:56:10.057Z,6.00
2018-10-02T14:59:19.235Z,5.47
2018-10-02T15:02:28.546Z,5.50
2018-10-02T15:05:37.787Z,5.83
2018-10-02T15:08:47.034Z,7.30
2018-10-02T15:11:56.432Z,5.87
2018-10-02T15:15:05.923Z,5.53
2018-10-02T15:18:15.364Z,6.60
2018-10-02T15:21:24.659Z,6.57
2018-10-02T15:24:34.041Z,6.87
2018-10-02T15:27:43.163Z,6.10
2018-10-02T15:30:52.338Z,7.40
2018-10-02T15:34:01.670Z,10.50
2018-10-02T15:37:10.841Z,9.03
2018-10-02T15:40:20.294Z,7.23
2018-10-02T15:43:29.518Z,7.87
2018-10-02T15:46:38.858Z,8.87
2018-10-02T15:49:48.098Z,10.33
2018-10-02T15:52:57.379Z,10.83
2018-10-02T15:56:06.677Z,9.30
2018-10-02T15:59:16.037Z,9.47
2018-10-02T16:02:25.190Z,19.03
2018-10-02T16:05:34.422Z,8.73
2018-10-02T16:08:44.040Z,9.50
2018-10-02T16:11:53.416Z,10.33
2018-10-02T16:15:02.786Z,8.17
2018-10-02T16:18:12.149Z,12.90
2018-10-02T16:21:21.370Z,10.10
2018-10-02T16:24:30.687Z,8.57
2018-10-02T16:27:40.138Z,7.67
2018-10-02T16:30:49.571Z,7.33
2018-10-02T16:33:58.843Z,7.33
2018-10-02T16:37:08.015Z,8.43
2018-10-02T16:40:17.421Z,7.83
2018-10-02T16:43:26.863Z,7.87
2018-10-02T16:46:36.104Z,6.00
2018-10-02T16:49:45.224Z,6.30
2018-10-02T16:52:54.464Z,5.77
2018-10-02T16:56:03.595Z,5.10
2018-10-02T16:59:12.811Z,6.27
2018-10-02T17:02:22.165Z,7.47
2018-10-02T17:05:31.506Z,5.63
2018-10-02T17:08:40.838Z,5.30
2018-10-02T17:11:49.998Z,5.43
2018-10-02T17:14:59.427Z,6.03
2018-10-02T17:18:08.799Z,6.03
2018-10-02T17:21:17.966Z,6.43
2018-10-02T17:24:27.119Z,10.63
2018-10-02T17:27:36.482Z,5.27
2018-10-02T17:30:45.678Z,5.83
2018-10-02T17:33:55.162Z,5.00
2018-10-02T17:37:04.403Z,6.07
2018-10-02T17:40:13.909Z,6.03
2018-10-02T17:43:23.236Z,7.50
2018-10-02T17:46:32.516Z,7.93
2018-10-02T17:49:42.206Z,7.27
2018-10-02T17:52:51.574Z,7.40
2018-10-02T17:56:00.876Z,7.17
2018-10-02T17:59:10.215Z,9.97
2018-10-02T18:02:19.325Z,9.07
2018-10-02T18:05:28.539Z,9.10
2018-10-02T18:08:37.810Z,9.80
2018-10-02T18:11:47.483Z,10.47
2018-10-02T18:14:56.746Z,10.00
2018-10-02T18:18:06.047Z,11.10
2018-10-02T18:21:15.315Z,11.57
2018-10-02T18:24:24.703Z,11.10
2018-10-02T18:27:34.011Z,9.73
2018-10-02T18:30:43.134Z,12.30
2018-10-02T18:33:52.675Z,11.77
2018-10-02T18:37:01.997Z,11.83
2018-10-02T18:40:11.175Z,11.63
2018-10-02T18:43:20.435Z,11.80
2018-10-02T18:46:29.693Z,11.37
2018-10-02T18:49:38.995Z,11.63
2018-10-02T18:52:48.339Z,11.87
2018-10-02T18:55:57.717Z,12.83
2018-10-02T18:59:07.019Z,13.03
2018-10-02T19:02:16.536Z,13.37
2018-10-02T19:05:25.828Z,13.70
2018-10-02T19:08:40.722Z,13.37
2018-10-02T19:11:55.306Z,13.13
2018-10-02T19:15:04.552Z,14.53
2018-10-02T19:18:13.898Z,14.27
2018-10-02T19:21:23.270Z,15.30
2018-10-02T19:24:32.397Z,15.50
2018-10-02T19:27:41.665Z,18.07
2018-10-02T19:30:56.431Z,17.13
2018-10-02T19:34:05.666Z,16.47
2018-10-02T19:37:20.292Z,15.30
2018-10-02T19:40:29.890Z,16.40
2018-10-02T19:43:39.072Z,14.67
2018-10-02T19:46:51.779Z,15.20
2018-10-02T19:50:01.084Z,15.63
2018-10-02T19:53:10.315Z,13.80
2018-10-02T19:56:19.567Z,15.33
2018-10-02T19:59:28.774Z,14.57
2018-10-02T20:02:38.012Z,14.17
2018-10-02T20:05:47.310Z,12.87
2018-10-02T20:08:56.891Z,14.03
2018-10-02T20:12:06.179Z,13.83
2018-10-02T20:15:15.646Z,14.87
2018-10-02T20:18:25.127Z,16.50
2018-10-02T20:21:34.406Z,13.87
2018-10-02T20:24:43.696Z,13.47
2018-10-02T20:27:52.954Z,13.40
2018-10-02T20:31:02.176Z,13.23
2018-10-02T20:34:11.565Z,14.13
2018-10-02T20:37:21.092Z,12.70
2018-10-02T20:40:30.923Z,12.10
2018-10-02T20:43:40.134Z,12.50
2018-10-02T20:46:49.476Z,12.30
2018-10-02T20:49:58.862Z,13.60
2018-10-02T20:53:08.063Z,11.10
2018-10-02T20:56:17.474Z,12.60
2018-10-02T20:59:26.825Z,11.50
2018-10-02T21:02:36.347Z,11.17
2018-10-02T21:05:45.699Z,12.17
2018-10-02T21:08:54.991Z,10.87
2018-10-02T21:12:04.263Z,11.57
2018-10-02T21:15:13.661Z,11.07
2018-10-02T21:18:23.873Z,11.87
2018-10-02T21:21:33.027Z,10.50
2018-10-02T21:24:43.116Z,10.00
2018-10-02T21:27:52.404Z,11.33
2018-10-02T21:31:01.675Z,10.23
2018-10-02T21:34:11.603Z,10.30
2018-10-02T21:37:20.858Z,9.37
2018-10-02T21:40:30.192Z,8.57
2018-10-02T21:43:39.466Z,7.80
2018-10-02T21:46:48.958Z,7.20
2018-10-02T21:49:58.283Z,8.47
2018-10-02T21:53:07.631Z,7.17
2018-10-02T21:56:16.813Z,6.70
2018-10-02T21:59:26.066Z,6.50
2018-10-02T22:02:35.369Z,7.37
2018-10-02T22:05:44.710Z,5.83
2018-10-02T22:08:53.818Z,6.07
2018-10-02T22:12:03.034Z,5.63
2018-10-02T22:15:12.181Z,5.77
2018-10-02T22:18:21.535Z,5.60
2018-10-02T22:21:30.681Z,5.50
2018-10-02T22:24:40.023Z,5.63
2018-10-02T22:27:49.146Z,4.93
2018-10-02T22:30:58.557Z,6.90
2018-10-02T22:34:08.023Z,4.43
2018-10-02T22:37:17.406Z,4.57
2018-10-02T22:40:26.700Z,4.37
2018-10-02T22:43:36.042Z,4.70
2018-10-02T22:46:45.275Z,6.27
2018-10-02T22:49:54.480Z,4.63
2018-10-02T22:53:03.786Z,4.40
2018-10-02T22:56:13.121Z,3.73
2018-10-02T22:59:22.430Z,4.80
2018-10-02T23:02:31.790Z,3.70
2018-10-02T23:05:41.099Z,4.93
2018-10-02T23:08:50.617Z,3.97
2018-10-02T23:11:59.918Z,4.40
2018-10-02T23:15:09.350Z,5.10
2018-10-02T23:18:18.547Z,4.90
2018-10-02T23:21:27.769Z,4.43
2018-10-02T23:24:37.167Z,4.70
2018-10-02T23:27:46.455Z,4.27
2018-10-02T23:30:55.690Z,4.40
2018-10-02T23:34:05.021Z,5.80
2018-10-02T23:37:21.127Z,4.13
2018-10-02T23:40:30.509Z,4.10
2018-10-02T23:43:39.794Z,4.50
2018-10-02T23:46:48.983Z,5.63
2018-10-02T23:49:58.405Z,4.00
2018-10-02T23:53:07.633Z,4.40
2018-10-02T23:56:16.967Z,4.60
2018-10-02T23:59:26.163Z,4.20
